Time;durP1;ratioP1;P1;durP2;ratioP2;P2;SDS_P1;SDS_P2;PMS_P1;PMS_P2;Temp;Humidity;BMP_temperature;BMP_pressure;BME280_temperature;BME280_humidity;BME280_pressure;Samples;Min_cycle;Max_cycle;Signal;HPM_P1;HPM_P2
2022/08/29 00:00:59;;;;;;;3.58;2.38;;;;;;;12.97;75.06;102094.88;5033817;28;20056;-65
2022/08/29 00:03:24;;;;;;;6.18;2.45;;;;;;;12.96;75.24;102095.81;5024784;28;20037;-65
2022/08/29 00:05:49;;;;;;;6.95;2.75;;;;;;;12.96;76.66;102094.00;5025332;28;20062;-67
2022/08/29 00:08:15;;;;;;;2.80;1.88;;;;;;;12.93;76.66;102098.75;5025755;28;20116;-65
2022/08/29 00:10:40;;;;;;;5.72;2.40;;;;;;;12.91;76.61;102090.63;5024484;28;20046;-67
2022/08/29 00:13:08;;;;;;;3.55;2.35;;;;;;;12.87;77.24;102091.84;5025110;28;20029;-64
2022/08/29 00:15:34;;;;;;;4.28;2.22;;;;;;;12.88;75.56;102095.44;5028273;28;20061;-66
2022/08/29 00:18:00;;;;;;;4.38;2.17;;;;;;;12.88;75.63;102099.03;5024608;28;20044;-65
2022/08/29 00:20:29;;;;;;;6.03;2.58;;;;;;;12.88;76.18;102100.91;5040830;28;20037;-64
2022/08/29 00:22:54;;;;;;;3.75;2.10;;;;;;;12.88;76.75;102095.44;5043880;28;20433;-65
2022/08/29 00:25:20;;;;;;;4.15;2.30;;;;;;;12.85;75.21;102088.28;5033729;28;20048;-67
2022/08/29 00:27:45;;;;;;;5.40;2.60;;;;;;;12.80;76.97;102086.84;5011207;28;20037;-65
2022/08/29 00:30:12;;;;;;;6.50;2.78;;;;;;;12.74;76.97;102091.69;5027855;28;20483;-64
2022/08/29 00:32:38;;;;;;;5.70;2.28;;;;;;;12.72;76.21;102100.94;5036184;28;20476;-66
2022/08/29 00:35:06;;;;;;;5.25;2.30;;;;;;;12.70;76.18;102103.78;5018647;28;20033;-65
2022/08/29 00:37:32;;;;;;;4.60;2.35;;;;;;;12.69;76.30;102088.38;5032444;28;20045;-65
2022/08/29 00:39:57;;;;;;;5.85;2.30;;;;;;;12.70;76.11;102095.59;5033185;28;20076;-68
2022/08/29 00:42:23;;;;;;;3.30;2.30;;;;;;;12.72;76.48;102104.56;5008884;28;20133;-65
2022/08/29 00:44:48;;;;;;;5.32;2.30;;;;;;;12.69;77.50;102104.75;5008707;28;20041;-64
2022/08/29 00:47:19;;;;;;;5.00;2.20;;;;;;;12.67;76.62;102111.28;5013400;28;20045;-67
2022/08/29 00:49:49;;;;;;;4.28;2.05;;;;;;;12.63;76.09;102115.16;5028779;28;20500;-64
2022/08/29 00:52:31;;;;;;;5.30;2.45;;;;;;;12.60;76.46;102105.31;5029132;28;20119;-66
2022/08/29 00:54:58;;;;;;;4.80;2.42;;;;;;;12.53;77.62;102106.66;5029112;28;20433;-68
2022/08/29 00:57:27;;;;;;;9.45;3.78;;;;;;;12.48;78.49;102104.19;5026418;28;20033;-65
2022/08/29 00:59:52;;;;;;;5.43;2.72;;;;;;;12.44;78.75;102099.91;5027917;28;20029;-65
2022/08/29 01:02:19;;;;;;;5.15;2.63;;;;;;;12.40;78.86;102102.91;5027039;28;20053;-65
2022/08/29 01:04:45;;;;;;;4.05;2.40;;;;;;;12.37;77.71;102106.72;5026895;28;20067;-65
2022/08/29 01:07:11;;;;;;;6.25;3.45;;;;;;;12.32;78.96;102105.22;5027092;28;20037;-65
2022/08/29 01:09:38;;;;;;;7.63;3.65;;;;;;;12.25;79.63;102105.56;5028286;28;20067;-65
2022/08/29 01:12:14;;;;;;;5.72;3.35;;;;;;;12.22;79.38;102105.78;5023885;28;20462;-65
2022/08/29 01:14:52;;;;;;;8.55;3.50;;;;;;;12.22;78.91;102104.91;5008412;28;20200;-64
2022/08/29 01:17:36;;;;;;;9.98;4.15;;;;;;;12.21;78.36;102114.91;5013434;28;20033;-66
2022/08/29 01:20:12;;;;;;;3.88;2.55;;;;;;;12.21;76.51;102108.56;5028217;28;20041;-65
2022/08/29 01:22:56;;;;;;;7.05;3.30;;;;;;;12.18;76.64;102111.50;5026555;28;20460;-65
2022/08/29 01:25:24;;;;;;;5.75;3.13;;;;;;;12.17;76.80;102116.09;5020009;28;20068;-67
2022/08/29 01:27:58;;;;;;;4.22;3.13;;;;;;;12.13;76.69;102113.63;5027379;28;20580;-66
2022/08/29 01:30:24;;;;;;;5.53;3.20;;;;;;;12.12;77.87;102115.44;5027507;28;20450;-66
2022/08/29 01:32:50;;;;;;;6.18;3.50;;;;;;;12.13;77.70;102109.03;5027308;28;20032;-67
2022/08/29 01:35:15;;;;;;;9.15;3.88;;;;;;;12.08;78.64;102113.03;5026545;28;20035;-64
2022/08/29 01:37:42;;;;;;;6.53;4.20;;;;;;;12.04;78.25;102106.84;5028111;28;20511;-65
2022/08/29 01:40:11;;;;;;;8.85;4.50;;;;;;;12.02;78.77;102102.44;5027812;28;20515;-65
2022/08/29 01:42:36;;;;;;;8.20;4.55;;;;;;;12.01;77.71;102098.84;5007255;28;20026;-65
2022/08/29 01:45:04;;;;;;;10.48;5.07;;;;;;;11.97;79.52;102098.13;5007661;28;20088;-65
2022/08/29 01:47:34;;;;;;;13.48;5.43;;;;;;;11.91;79.74;102089.44;5017659;28;20500;-64
2022/08/29 01:50:01;;;;;;;8.23;4.60;;;;;;;11.89;79.49;102099.53;5028639;28;20033;-65
2022/08/29 01:52:27;;;;;;;11.40;5.43;;;;;;;11.87;78.71;102098.75;5027852;28;20040;-65
2022/08/29 01:54:52;;;;;;;10.18;4.82;;;;;;;11.86;78.65;102094.28;5044983;28;20037;-64
2022/08/29 01:57:18;;;;;;;8.82;4.40;;;;;;;11.86;77.75;102095.16;5013014;28;20103;-64
2022/08/29 01:59:44;;;;;;;7.13;4.78;;;;;;;11.84;77.72;102102.53;5007260;28;20076;-64
2022/08/29 02:02:18;;;;;;;9.52;4.70;;;;;;;11.82;78.14;102099.03;5010621;28;20053;-65
2022/08/29 02:04:46;;;;;;;12.00;5.45;;;;;;;11.80;77.75;102106.41;5027254;28;20037;-64
2022/08/29 02:07:12;;;;;;;11.73;6.28;;;;;;;11.75;78.70;102103.94;5026870;28;20519;-64
2022/08/29 02:09:39;;;;;;;11.63;6.10;;;;;;;11.71;79.29;102096.91;5027028;28;20032;-65
2022/08/29 02:12:06;;;;;;;15.80;5.40;;;;;;;11.68;80.03;102102.50;5027071;28;20041;-64
2022/08/29 02:14:33;;;;;;;15.68;5.85;;;;;;;11.67;78.66;102102.59;5025148;28;20057;-64
2022/08/29 02:16:58;;;;;;;9.07;4.78;;;;;;;11.66;78.09;102104.47;5023032;28;20576;-65
2022/08/29 02:19:24;;;;;;;15.93;5.80;;;;;;;11.63;78.88;102103.75;5024578;28;20030;-66
2022/08/29 02:21:50;;;;;;;11.27;5.35;;;;;;;11.59;77.95;102100.31;5026170;28;20021;-66
2022/08/29 02:24:16;;;;;;;11.27;5.40;;;;;;;11.58;77.99;102103.13;5026439;28;20124;-65
2022/08/29 02:26:43;;;;;;;9.52;5.00;;;;;;;11.56;78.14;102107.78;5025205;28;20021;-65
2022/08/29 02:29:10;;;;;;;13.45;5.47;;;;;;;11.54;78.73;102105.13;5026368;28;20044;-66
2022/08/29 02:31:37;;;;;;;7.65;4.72;;;;;;;11.53;78.54;102111.56;5008297;28;20062;-65
2022/08/29 02:34:03;;;;;;;7.40;4.65;;;;;;;11.51;78.11;102116.19;5025188;28;20631;-64
2022/08/29 02:36:28;;;;;;;6.20;4.43;;;;;;;11.48;77.78;102120.00;5027169;28;20025;-65
2022/08/29 02:38:54;;;;;;;9.90;5.32;;;;;;;11.45;77.50;102119.28;5019936;28;20080;-65
2022/08/29 02:41:19;;;;;;;9.35;5.68;;;;;;;11.43;78.70;102121.22;5025939;28;20393;-65
2022/08/29 02:43:45;;;;;;;12.10;5.90;;;;;;;11.41;79.19;102124.00;5025992;28;20511;-65
2022/08/29 02:46:15;;;;;;;10.38;5.97;;;;;;;11.43;78.37;102122.09;5024461;28;20033;-65
2022/08/29 02:48:42;;;;;;;10.25;5.15;;;;;;;11.46;78.49;102130.09;5022163;28;20037;-64
2022/08/29 02:51:08;;;;;;;9.25;5.25;;;;;;;11.47;78.38;102126.44;5026831;28;20112;-67
2022/08/29 02:53:34;;;;;;;11.40;5.50;;;;;;;11.45;79.18;102127.47;5024611;28;20568;-64
2022/08/29 02:56:00;;;;;;;9.05;5.60;;;;;;;11.42;80.57;102125.81;5026186;28;20037;-65
2022/08/29 02:58:26;;;;;;;12.98;5.70;;;;;;;11.40;79.80;102133.16;5026228;28;20052;-65
2022/08/29 03:00:52;;;;;;;10.80;5.40;;;;;;;11.40;79.76;102130.44;5024859;28;20069;-67
2022/08/29 03:03:18;;;;;;;12.68;5.15;;;;;;;11.39;79.76;102125.09;5024843;28;20033;-65
2022/08/29 03:05:44;;;;;;;8.57;5.07;;;;;;;11.39;79.36;102125.09;5025145;28;20049;-64
2022/08/29 03:08:12;;;;;;;8.32;5.18;;;;;;;11.39;79.01;102119.63;5023521;28;20037;-65
2022/08/29 03:10:39;;;;;;;7.63;4.53;;;;;;;11.40;78.94;102118.66;5010687;28;20535;-64
2022/08/29 03:13:04;;;;;;;9.02;5.15;;;;;;;11.41;78.40;102114.97;5006147;28;20476;-64
2022/08/29 03:15:30;;;;;;;10.38;5.18;;;;;;;11.42;78.29;102114.00;5006946;28;20042;-64
2022/08/29 03:17:56;;;;;;;8.57;4.50;;;;;;;11.41;79.00;102120.41;5016403;28;20084;-65
2022/08/29 03:20:23;;;;;;;8.82;4.35;;;;;;;11.39;78.65;102119.63;5039404;28;20520;-65
2022/08/29 03:22:49;;;;;;;6.82;4.38;;;;;;;11.40;78.94;102116.81;5032965;28;20505;-65
2022/08/29 03:25:16;;;;;;;9.23;4.57;;;;;;;11.42;78.87;102114.00;5025895;28;20022;-65
2022/08/29 03:27:41;;;;;;;9.13;3.97;;;;;;;11.40;79.79;102111.38;5025819;28;20405;-65
2022/08/29 03:30:09;;;;;;;7.28;4.32;;;;;;;11.39;79.91;102112.34;5024625;28;20038;-65
2022/08/29 03:32:35;;;;;;;9.88;4.32;;;;;;;11.37;79.13;102106.06;5024331;28;20397;-66
2022/08/29 03:35:01;;;;;;;5.45;3.65;;;;;;;11.35;78.83;102102.56;5011748;28;20038;-64
2022/08/29 03:37:26;;;;;;;8.43;4.13;;;;;;;11.31;80.14;102103.69;5018871;28;20496;-64
2022/08/29 03:39:53;;;;;;;7.93;4.72;;;;;;;11.27;80.58;102103.94;5024985;28;20071;-65
2022/08/29 03:42:18;;;;;;;9.13;4.32;;;;;;;11.22;81.02;102106.94;5025387;28;20045;-65
2022/08/29 03:44:44;;;;;;;9.23;5.13;;;;;;;11.18;81.28;102098.03;5024980;28;20295;-65
2022/08/29 03:47:09;;;;;;;9.32;4.35;;;;;;;11.15;81.41;102098.22;5024803;28;20037;-65
2022/08/29 03:49:35;;;;;;;9.80;4.53;;;;;;;11.12;81.53;102098.38;5025556;28;20034;-66
2022/08/29 03:52:01;;;;;;;6.38;4.30;;;;;;;11.07;80.85;102078.69;5024353;28;20560;-64
2022/08/29 03:54:26;;;;;;;8.63;4.35;;;;;;;11.00;82.36;102079.97;5025201;28;20136;-65
2022/08/29 03:56:52;;;;;;;7.43;4.05;;;;;;;10.98;81.78;102079.19;5025088;28;20472;-64
2022/08/29 03:59:18;;;;;;;7.05;4.00;;;;;;;10.99;81.56;102079.09;5025067;28;20037;-66
2022/08/29 04:01:46;;;;;;;9.05;4.65;;;;;;;10.98;81.50;102074.63;5024560;28;20029;-65
2022/08/29 04:05:05;;;;;;;8.38;4.57;;;;;;;10.96;81.57;102075.69;5023609;28;20057;-65
2022/08/29 04:06:58;;;;;;;9.55;4.32;;;;;;;10.93;82.33;102071.28;5024074;28;20052;-66
2022/08/29 04:09:24;;;;;;;7.82;4.30;;;;;;;10.94;82.14;102077.59;5025849;28;20112;-65
2022/08/29 04:11:49;;;;;;;6.90;4.50;;;;;;;10.95;81.21;102076.63;5018542;28;20445;-66
2022/08/29 04:14:15;;;;;;;6.43;4.50;;;;;;;10.95;81.48;102082.06;5023175;28;20029;-66
2022/08/29 04:16:40;;;;;;;9.35;4.10;;;;;;;10.91;80.50;102077.75;5023147;28;20370;-68
2022/08/29 04:19:05;;;;;;;7.93;4.30;;;;;;;10.92;81.27;102085.88;5026295;28;20040;-65
2022/08/29 04:21:33;;;;;;;10.60;4.20;;;;;;;10.91;80.55;102095.00;5027599;28;20492;-67
2022/08/29 04:23:59;;;;;;;9.68;4.30;;;;;;;10.90;80.78;102090.50;5029577;28;20040;-65
2022/08/29 04:26:24;;;;;;;9.45;4.22;;;;;;;10.89;80.73;102094.19;5026457;28;20037;-66
2022/08/29 04:28:49;;;;;;;10.40;4.53;;;;;;;10.84;80.84;102096.28;5028686;28;20441;-65
2022/08/29 04:31:20;;;;;;;9.20;4.75;;;;;;;10.79;80.68;102095.66;5028972;28;20029;-64
2022/08/29 04:33:47;;;;;;;7.75;4.00;;;;;;;10.75;80.29;102093.16;5024462;28;20069;-65
2022/08/29 04:36:13;;;;;;;10.65;4.15;;;;;;;10.77;80.78;102099.41;5009530;28;20033;-64
2022/08/29 04:38:39;;;;;;;6.55;3.38;;;;;;;10.81;80.38;102101.00;5028509;28;20081;-65
2022/08/29 04:41:09;;;;;;;6.40;3.72;;;;;;;10.81;80.08;102101.88;5026633;28;20370;-65
2022/08/29 04:43:34;;;;;;;6.82;3.80;;;;;;;10.82;80.84;102105.47;5027595;28;20041;-65
2022/08/29 04:46:00;;;;;;;9.27;4.60;;;;;;;10.81;81.08;102109.16;5026451;28;20408;-66
2022/08/29 04:48:26;;;;;;;7.55;4.10;;;;;;;10.80;80.88;102110.13;5027753;28;20787;-65
2022/08/29 04:50:56;;;;;;;5.47;3.47;;;;;;;10.78;80.62;102101.19;5024935;28;20490;-65
2022/08/29 04:53:22;;;;;;;8.07;3.55;;;;;;;10.77;81.65;102104.84;5024004;28;20053;-64
2022/08/29 04:55:59;;;;;;;6.90;3.78;;;;;;;10.76;82.48;102108.53;5027507;28;20041;-65
2022/08/29 04:58:24;;;;;;;10.18;4.05;;;;;;;10.71;81.93;102109.66;5028628;28;20539;-64
2022/08/29 05:00:51;;;;;;;4.82;3.72;;;;;;;10.68;81.81;102106.22;5028868;28;20060;-65
2022/08/29 05:03:18;;;;;;;6.60;3.70;;;;;;;10.68;81.61;102108.97;5026987;28;20124;-66
2022/08/29 05:05:43;;;;;;;8.20;4.22;;;;;;;10.70;80.80;102107.03;5028459;28;20048;-65
2022/08/29 05:08:09;;;;;;;6.00;3.92;;;;;;;10.72;81.11;102107.81;5028561;28;20045;-65
2022/08/29 05:10:34;;;;;;;5.47;3.35;;;;;;;10.75;80.88;102110.38;5028283;28;20037;-65
2022/08/29 05:12:59;;;;;;;5.25;3.60;;;;;;;10.78;81.68;102106.63;5008357;28;20034;-66
2022/08/29 05:15:25;;;;;;;5.20;3.70;;;;;;;10.82;80.32;102108.19;5007969;28;20834;-66
2022/08/29 05:17:50;;;;;;;5.38;3.72;;;;;;;10.86;80.61;102107.94;5015973;28;20481;-64
2022/08/29 05:20:16;;;;;;;7.95;3.78;;;;;;;10.90;82.04;102111.41;5028200;28;20533;-66
2022/08/29 05:22:41;;;;;;;8.13;3.78;;;;;;;10.94;81.93;102113.00;5028276;28;20045;-65
2022/08/29 05:25:09;;;;;;;7.13;3.70;;;;;;;10.96;82.23;102111.09;5028353;28;20788;-65
2022/08/29 05:27:34;;;;;;;6.25;3.80;;;;;;;11.00;81.85;102118.09;5011067;28;20629;-64
2022/08/29 05:30:00;;;;;;;7.93;3.53;;;;;;;11.04;81.58;102122.44;5008336;28;20030;-65
2022/08/29 05:32:26;;;;;;;5.88;3.15;;;;;;;11.11;81.31;102129.31;5012973;28;20115;-65
2022/08/29 05:34:51;;;;;;;5.85;3.50;;;;;;;11.16;81.92;102126.34;5026267;28;20469;-66
2022/08/29 05:37:19;;;;;;;10.60;4.90;;;;;;;11.17;81.57;102123.53;5028235;28;20657;-65
2022/08/29 05:39:48;;;;;;;8.23;3.50;;;;;;;11.23;81.11;102133.19;5027888;28;20033;-65
2022/08/29 05:42:15;;;;;;;6.45;3.92;;;;;;;11.32;81.28;102138.16;5027479;28;20064;-65
2022/08/29 05:44:41;;;;;;;6.50;3.83;;;;;;;11.37;81.92;102133.31;5025794;28;20049;-66
2022/08/29 05:47:10;;;;;;;4.32;3.22;;;;;;;11.45;81.38;102141.09;5026919;28;20033;-65
2022/08/29 05:49:37;;;;;;;10.30;3.63;;;;;;;11.54;81.94;102139.69;5017822;28;20080;-65
2022/08/29 05:52:04;;;;;;;11.02;4.10;;;;;;;11.59;82.34;102135.75;5013554;28;20040;-65
2022/08/29 05:54:32;;;;;;;8.65;4.05;;;;;;;11.65;82.13;102139.97;5027627;28;20079;-65
2022/08/29 05:56:58;;;;;;;6.50;4.07;;;;;;;11.69;83.07;102131.53;5011373;28;20607;-68
2022/08/29 05:59:23;;;;;;;10.52;4.40;;;;;;;11.80;83.17;102141.84;5023775;28;20033;-64
2022/08/29 06:01:48;;;;;;;8.90;3.50;;;;;;;11.87;83.44;102146.00;5026156;28;20061;-65
2022/08/29 06:04:14;;;;;;;11.20;4.03;;;;;;;11.94;83.51;102144.69;5024423;28;20049;-65
2022/08/29 06:06:40;;;;;;;5.18;3.92;;;;;;;12.01;83.24;102134.28;5027494;28;20037;-66
2022/08/29 06:09:06;;;;;;;4.97;3.53;;;;;;;12.11;83.61;102148.28;5027389;28;20025;-64
2022/08/29 06:11:32;;;;;;;7.32;3.90;;;;;;;12.17;83.80;102151.56;5023773;28;20037;-67
2022/08/29 06:13:59;;;;;;;7.03;4.22;;;;;;;12.27;82.75;102151.88;5026450;28;20538;-68
2022/08/29 06:16:26;;;;;;;7.65;4.20;;;;;;;12.37;82.87;102154.97;5022640;28;20037;-65
2022/08/29 06:18:52;;;;;;;10.05;4.05;;;;;;;12.45;83.33;102156.25;5019004;28;20334;-65
2022/08/29 06:21:18;;;;;;;10.82;4.22;;;;;;;12.50;83.16;102156.88;5007569;28;20038;-65
2022/08/29 06:23:44;;;;;;;8.07;4.57;;;;;;;12.56;82.28;102154.75;5026225;28;20040;-65
2022/08/29 06:26:11;;;;;;;7.65;4.82;;;;;;;12.64;82.53;102150.59;5026619;28;20045;-66
2022/08/29 06:28:39;;;;;;;5.88;4.10;;;;;;;12.76;82.02;102162.59;5026303;28;20060;-64
2022/08/29 06:31:07;;;;;;;7.85;4.70;;;;;;;12.84;81.81;102152.09;5026683;28;20041;-67
2022/08/29 06:33:33;;;;;;;9.98;4.72;;;;;;;12.94;81.36;102156.00;5027776;28;20022;-66
2022/08/29 06:35:59;;;;;;;6.53;4.43;;;;;;;13.03;81.63;102160.03;5009097;28;20033;-65
2022/08/29 06:38:24;;;;;;;6.20;4.50;;;;;;;13.14;81.52;102159.38;5025483;28;20102;-65
2022/08/29 06:40:50;;;;;;;7.90;5.53;;;;;;;13.21;82.20;102153.44;5023289;28;20438;-65
2022/08/29 06:43:15;;;;;;;8.13;5.30;;;;;;;13.34;81.59;102155.44;5025050;28;20033;-65
2022/08/29 06:45:42;;;;;;;7.38;4.95;;;;;;;13.44;81.72;102164.81;5024319;28;20061;-66
2022/08/29 06:48:07;;;;;;;7.00;5.45;;;;;;;13.55;82.43;102166.84;5022191;28;20079;-65
2022/08/29 06:50:37;;;;;;;9.63;5.50;;;;;;;13.65;82.46;102170.75;5018921;28;20444;-65
2022/08/29 06:53:04;;;;;;;10.48;5.60;;;;;;;13.76;82.82;102176.44;5021548;28;20486;-65
2022/08/29 06:55:29;;;;;;;11.65;5.45;;;;;;;13.81;80.95;102178.88;5023997;28;20048;-68
2022/08/29 06:57:54;;;;;;;9.85;5.20;;;;;;;13.93;80.62;102180.78;5021086;28;20021;-64
2022/08/29 07:00:20;;;;;;;11.40;6.22;;;;;;;14.04;80.95;102167.28;5007790;28;20109;-65
2022/08/29 07:02:47;;;;;;;14.32;5.53;;;;;;;14.12;81.04;102159.44;5023856;28;20041;-64
2022/08/29 07:05:14;;;;;;;11.50;5.20;;;;;;;14.24;80.55;102168.69;5024801;28;20114;-65
2022/08/29 07:07:41;;;;;;;9.40;5.72;;;;;;;14.37;80.49;102169.63;5025443;28;20125;-65
2022/08/29 07:10:07;;;;;;;11.50;5.88;;;;;;;14.49;80.10;102174.31;5024368;28;20033;-66
2022/08/29 07:12:33;;;;;;;9.15;5.40;;;;;;;14.63;79.52;102173.38;5023329;28;20303;-65
2022/08/29 07:15:00;;;;;;;11.15;5.72;;;;;;;14.82;78.75;102185.81;5023758;28;20144;-65
2022/08/29 07:17:27;;;;;;;10.65;6.82;;;;;;;14.96;80.46;102178.38;5023622;28;20076;-65
2022/08/29 07:19:53;;;;;;;14.30;6.50;;;;;;;15.09;79.41;102172.03;5024064;28;20116;-64
2022/08/29 07:22:18;;;;;;;12.23;6.13;;;;;;;15.22;78.09;102167.47;5023292;28;20116;-65
2022/08/29 07:24:44;;;;;;;9.55;6.28;;;;;;;15.35;77.49;102171.09;5024879;28;20128;-66
2022/08/29 07:27:10;;;;;;;17.95;6.07;;;;;;;15.37;74.70;102168.22;5022022;28;20144;-65
2022/08/29 07:29:37;;;;;;;12.60;6.45;;;;;;;15.49;73.86;102164.63;5014106;28;20025;-65
2022/08/29 07:32:03;;;;;;;13.57;5.72;;;;;;;15.66;75.16;102166.16;5007750;28;20653;-66
2022/08/29 07:34:28;;;;;;;14.38;6.25;;;;;;;15.87;74.99;102175.56;5007630;28;20034;-64
2022/08/29 07:36:54;;;;;;;14.90;6.07;;;;;;;16.10;74.90;102171.13;5006492;28;20025;-65
2022/08/29 07:39:20;;;;;;;14.60;5.95;;;;;;;16.25;74.04;102166.34;5005856;28;20041;-64
2022/08/29 07:41:46;;;;;;;13.98;5.38;;;;;;;16.26;71.14;102170.84;5010717;28;20038;-64
2022/08/29 07:44:12;;;;;;;11.63;5.10;;;;;;;16.24;69.89;102162.72;5016699;28;20032;-64
2022/08/29 07:46:38;;;;;;;13.02;5.35;;;;;;;16.27;70.53;102150.59;5022349;28;20072;-65
2022/08/29 07:49:03;;;;;;;11.60;5.68;;;;;;;16.41;68.42;102152.31;5024110;28;20105;-65
2022/08/29 07:51:29;;;;;;;10.43;4.80;;;;;;;16.55;68.45;102150.28;5024718;28;20045;-65
2022/08/29 07:53:56;;;;;;;8.32;5.28;;;;;;;16.77;69.83;102154.13;5024360;28;20025;-64
2022/08/29 07:56:27;;;;;;;10.48;4.45;;;;;;;16.88;66.88;102158.78;5023034;28;20060;-66
2022/08/29 07:58:53;;;;;;;8.50;4.47;;;;;;;16.97;66.94;102167.22;5024479;28;20037;-64
2022/08/29 08:01:19;;;;;;;11.40;5.20;;;;;;;17.05;67.11;102163.84;5023119;28;20775;-64
2022/08/29 08:03:45;;;;;;;10.98;4.53;;;;;;;17.10;65.39;102161.59;5021363;28;20037;-65
2022/08/29 08:06:10;;;;;;;11.45;4.65;;;;;;;17.21;66.81;102152.53;5022912;28;20342;-64
2022/08/29 08:08:36;;;;;;;9.50;4.35;;;;;;;17.34;64.82;102153.28;5022723;28;20041;-65
2022/08/29 08:11:04;;;;;;;12.25;5.47;;;;;;;17.52;65.81;102160.03;5022508;28;20386;-65
2022/08/29 08:13:30;;;;;;;9.15;4.10;;;;;;;17.71;63.87;102161.31;5022597;28;20377;-65
2022/08/29 08:15:55;;;;;;;8.20;4.38;;;;;;;17.66;62.31;102163.56;5022431;28;20034;-67
2022/08/29 08:18:21;;;;;;;8.70;4.60;;;;;;;17.76;64.55;102159.06;5020928;28;20036;-64
2022/08/29 08:20:47;;;;;;;6.53;4.53;;;;;;;17.85;63.20;102155.56;5019814;28;20108;-65
2022/08/29 08:23:17;;;;;;;11.88;5.57;;;;;;;17.92;63.82;102154.06;5020336;28;20099;-65
2022/08/29 08:25:45;;;;;;;10.23;5.25;;;;;;;17.95;61.77;102159.34;5023057;28;20045;-65
2022/08/29 08:28:13;;;;;;;9.73;5.28;;;;;;;17.87;61.10;102164.59;5025560;28;20171;-65
2022/08/29 08:30:39;;;;;;;10.43;4.20;;;;;;;17.77;61.36;102161.72;5025902;28;20052;-64
2022/08/29 08:33:05;;;;;;;9.88;4.43;;;;;;;17.78;62.87;102159.84;5023990;28;20063;-66
2022/08/29 08:35:34;;;;;;;11.23;4.40;;;;;;;17.82;60.92;102158.59;5020676;28;20053;-65
2022/08/29 08:38:00;;;;;;;10.40;4.07;;;;;;;17.88;59.90;102162.72;5025341;28;20486;-64
2022/08/29 08:40:27;;;;;;;10.15;4.63;;;;;;;17.92;59.99;102169.72;5026357;28;20491;-64
2022/08/29 08:42:59;;;;;;;8.38;4.10;;;;;;;18.07;62.03;102162.94;5024536;28;20037;-65
2022/08/29 08:45:41;;;;;;;9.15;4.10;;;;;;;18.31;60.40;102162.75;5022597;28;20073;-64
2022/08/29 08:48:15;;;;;;;7.57;3.58;;;;;;;18.46;60.26;102155.06;5022028;28;20037;-65
2022/08/29 08:50:46;;;;;;;9.73;4.00;;;;;;;18.50;60.95;102149.16;5022339;28;20077;-65
2022/08/29 08:53:32;;;;;;;10.15;5.03;;;;;;;18.59;61.16;102159.41;5023895;28;20042;-65
2022/08/29 08:56:00;;;;;;;9.75;4.63;;;;;;;18.69;60.47;102150.38;5016594;28;20040;-68
2022/08/29 08:58:41;;;;;;;11.13;4.97;;;;;;;18.96;61.67;102148.00;5019749;28;20022;-64
2022/08/29 09:01:31;;;;;;;11.60;4.78;;;;;;;19.04;58.25;102153.72;5017746;28;20049;-65
2022/08/29 09:04:27;;;;;;;11.55;5.13;;;;;;;19.25;60.05;102147.31;5022075;28;20041;-64
2022/08/29 09:07:21;;;;;;;11.70;4.22;;;;;;;19.20;58.78;102152.38;5023819;28;20056;-66
2022/08/29 09:09:52;;;;;;;12.07;4.30;;;;;;;18.91;55.06;102165.94;5023005;28;20041;-66
2022/08/29 09:12:18;;;;;;;11.40;3.83;;;;;;;18.90;56.22;102159.56;5022527;28;20472;-65
2022/08/29 09:15:07;;;;;;;9.85;3.90;;;;;;;19.09;56.98;102156.94;5025670;28;20033;-65
2022/08/29 09:17:41;;;;;;;8.20;3.65;;;;;;;19.06;55.62;102162.72;5019482;28;20048;-65
2022/08/29 09:20:10;;;;;;;10.50;4.32;;;;;;;18.91;54.34;102163.19;5022145;28;20044;-64
2022/08/29 09:22:39;;;;;;;10.93;4.10;;;;;;;18.94;56.54;102160.19;5027560;28;20091;-65
2022/08/29 09:25:07;;;;;;;11.07;4.43;;;;;;;19.00;55.99;102160.50;5025897;28;20108;-65
2022/08/29 09:27:35;;;;;;;9.77;4.25;;;;;;;19.08;56.43;102169.00;5027463;28;20095;-65
2022/08/29 09:30:08;;;;;;;10.60;4.45;;;;;;;19.29;57.02;102166.22;5026545;28;20050;-64
2022/08/29 09:32:51;;;;;;;12.70;4.50;;;;;;;19.42;57.65;102167.91;5025042;28;20051;-64
2022/08/29 09:35:23;;;;;;;11.77;3.78;;;;;;;19.61;55.77;102176.31;5026077;28;20512;-65
2022/08/29 09:37:57;;;;;;;9.15;3.60;;;;;;;19.64;53.59;102175.19;5027239;28;20586;-64
2022/08/29 09:40:38;;;;;;;11.63;3.67;;;;;;;19.68;52.70;102184.91;5026346;28;20050;-64
2022/08/29 09:43:06;;;;;;;21.02;4.15;;;;;;;19.55;52.97;102182.38;5026867;28;20413;-64
2022/08/29 09:45:32;;;;;;;9.88;3.83;;;;;;;19.62;52.90;102180.81;5019400;28;20061;-65
2022/08/29 09:48:13;;;;;;;10.35;3.10;;;;;;;19.54;52.29;102173.22;5026755;28;20113;-65
2022/08/29 09:50:38;;;;;;;10.93;3.80;;;;;;;19.37;51.59;102168.31;5024633;28;20210;-65
2022/08/29 09:53:04;;;;;;;10.02;3.03;;;;;;;19.40;56.03;102161.63;5025551;28;20528;-64
2022/08/29 09:55:37;;;;;;;11.23;3.67;;;;;;;19.45;53.16;102160.22;5026406;28;20119;-64
2022/08/29 09:58:09;;;;;;;7.53;3.28;;;;;;;19.41;53.98;102164.28;5026293;28;20070;-65
2022/08/29 10:00:37;;;;;;;7.00;3.58;;;;;;;19.53;55.57;102163.16;5022713;28;20441;-65
2022/08/29 10:03:06;;;;;;;8.27;3.33;;;;;;;19.76;54.26;102174.94;5022557;28;20503;-64
2022/08/29 10:05:40;;;;;;;5.85;2.90;;;;;;;19.91;53.11;102166.25;5025662;28;20049;-65
2022/08/29 10:08:22;;;;;;;7.35;3.30;;;;;;;19.84;51.01;102157.69;5022554;28;20408;-65
2022/08/29 10:10:53;;;;;;;6.30;3.17;;;;;;;19.94;51.25;102161.34;5024872;28;20519;-65
2022/08/29 10:13:26;;;;;;;5.70;2.92;;;;;;;19.99;51.35;102161.78;5019539;28;20031;-66
2022/08/29 10:16:07;;;;;;;6.32;3.17;;;;;;;20.11;51.57;102168.09;5024321;28;20052;-65
2022/08/29 10:18:56;;;;;;;8.20;2.92;;;;;;;20.34;53.25;102168.72;5023606;28;20489;-65
2022/08/29 10:21:37;;;;;;;8.40;3.10;;;;;;;20.48;52.83;102173.88;5025664;28;20141;-65
2022/08/29 10:24:13;;;;;;;8.77;3.45;;;;;;;20.53;50.64;102170.69;5022907;28;20403;-64
2022/08/29 10:26:59;;;;;;;9.45;3.05;;;;;;;20.89;52.38;102172.75;5025529;28;20408;-67
2022/08/29 10:29:38;;;;;;;6.55;3.10;;;;;;;21.07;49.86;102170.09;5025663;28;20052;-65
2022/08/29 10:32:31;;;;;;;8.07;3.47;;;;;;;21.25;50.54;102172.09;5024828;28;20040;-66
2022/08/29 10:35:22;;;;;;;8.07;3.22;;;;;;;21.20;51.72;102167.00;5024150;28;20041;-65
2022/08/29 10:38:01;;;;;;;7.28;3.40;;;;;;;21.26;49.13;102157.25;5024334;28;20489;-65
2022/08/29 10:40:38;;;;;;;9.65;3.20;;;;;;;21.62;48.68;102153.66;5023927;28;20033;-64
2022/08/29 10:43:24;;;;;;;9.70;3.60;;;;;;;21.98;48.89;102153.81;5024161;28;20577;-65
2022/08/29 10:46:11;;;;;;;9.73;3.72;;;;;;;22.21;47.65;102139.56;5022510;28;20048;-65
2022/08/29 10:49:02;;;;;;;9.13;3.45;;;;;;;22.61;44.87;102142.75;5023103;28;20135;-65
2022/08/29 10:51:36;;;;;;;9.55;3.60;;;;;;;22.64;43.46;102149.91;5013597;28;20103;-69
2022/08/29 10:54:23;;;;;;;8.35;3.70;;;;;;;21.97;45.67;102131.81;5022147;28;20480;-65
2022/08/29 10:56:50;;;;;;;9.05;3.10;;;;;;;22.11;48.62;102131.28;5024194;28;20144;-65
2022/08/29 10:59:41;;;;;;;6.97;3.15;;;;;;;22.75;46.47;102134.91;5022574;28;20021;-66
2022/08/29 11:02:21;;;;;;;7.82;3.40;;;;;;;23.47;47.44;102130.13;5022298;28;20393;-65
2022/08/29 11:04:51;;;;;;;5.97;2.83;;;;;;;23.53;43.83;102123.91;5024761;28;20374;-65
2022/08/29 11:07:27;;;;;;;5.30;2.88;;;;;;;23.39;44.40;102128.16;5025712;28;20076;-65
2022/08/29 11:10:09;;;;;;;6.68;3.00;;;;;;;23.73;45.43;102124.56;5025388;28;20032;-65
2022/08/29 11:12:34;;;;;;;;;;;;;;;24.15;46.56;102113.44;5022917;28;20443;-64
2022/08/29 11:15:16;;;;;;;12.87;3.10;;;;;;;24.14;42.70;102108.91;5021919;28;20015;-65
2022/08/29 11:17:45;;;;;;;9.40;3.28;;;;;;;24.32;41.07;102112.44;5010817;28;21057;-65
2022/08/29 11:20:20;;;;;;;5.72;3.40;;;;;;;24.77;41.74;102108.38;5012853;28;20504;-65
2022/08/29 11:23:06;;;;;;;6.28;2.95;;;;;;;25.05;40.44;102110.78;5017798;28;20048;-66
2022/08/29 11:25:33;;;;;;;5.30;3.03;;;;;;;25.13;38.66;102108.91;5014173;28;20150;-64
2022/08/29 11:28:07;;;;;;;5.53;2.70;;;;;;;24.89;37.93;102094.94;5025083;28;20033;-64
2022/08/29 11:31:01;;;;;;;5.15;2.65;;;;;;;24.86;39.46;102106.47;5025856;28;20053;-65